Kinkler, Texas
Current Conditions -  °F | °C
As of 4:35 AM on Friday 24 Oct 2014 (Local Time) from K66R Reporting Station
Clear Clear  
Wind Chill: 55°   Ceiling: Unl
Heat Index: 55°   Visibility: 10mi
Dew Point: 53°   Wind: 0mph
Humidity: 94%   Direction: NA
Pressure: 30.12"   Gusts: NA
Location:  29.3984°N, 96.8256°W
Report Text: K66R 240935Z AUTO 00000KT 10SM CLR 13/12 A3012 RMK AO2 T01250115
Loading
Personal Weather Stations






























Interactive Weather Map
Tropical Storm Tracking
New forecast layout! Learn more

10-Day Weather Forecast

Advertisements
Track Severe Weather on mobile